createdAt,value
2023-05-11T00:01:13.826Z,100879.91
2023-05-11T00:08:17.369Z,100873.38
2023-05-11T00:15:19.196Z,100874.19
2023-05-11T00:22:21.200Z,100868.16
2023-05-11T00:29:22.900Z,100861.50
2023-05-11T00:36:24.563Z,100861.88
2023-05-11T00:43:26.437Z,100864.97
2023-05-11T00:50:28.190Z,100865.50
2023-05-11T00:57:33.181Z,100871.91
2023-05-11T01:04:34.748Z,100866.66
2023-05-11T01:11:52.966Z,100868.19
2023-05-11T01:19:01.666Z,100886.94
2023-05-11T01:26:17.315Z,100885.88
2023-05-11T01:33:28.028Z,100885.09
2023-05-11T01:40:31.887Z,100899.09
2023-05-11T01:47:33.586Z,100900.78
2023-05-11T01:54:35.765Z,100901.97
2023-05-11T02:01:37.541Z,100901.59
2023-05-11T02:08:39.479Z,100911.50
2023-05-11T02:15:42.058Z,100914.75
2023-05-11T02:22:44.035Z,100918.38
2023-05-11T02:29:46.430Z,100924.94
2023-05-11T02:36:49.395Z,100931.16
2023-05-11T02:43:52.473Z,100922.22
2023-05-11T02:50:55.463Z,100928.31
2023-05-11T02:57:59.394Z,100920.66
2023-05-11T03:05:01.990Z,100928.34
2023-05-11T03:12:04.757Z,100930.44
2023-05-11T03:19:08.655Z,100926.34
2023-05-11T03:26:10.815Z,100934.91
2023-05-11T03:33:14.501Z,100939.59
2023-05-11T03:40:17.341Z,100941.22
2023-05-11T03:47:23.854Z,100938.88
2023-05-11T03:54:25.567Z,100939.63
2023-05-11T04:01:27.179Z,100942.34
2023-05-11T04:08:29.575Z,100937.53
2023-05-11T04:15:31.272Z,100937.28
2023-05-11T04:22:32.844Z,100939.75
2023-05-11T04:29:34.451Z,100947.06
2023-05-11T04:36:35.995Z,100953.84
2023-05-11T04:43:37.745Z,100955.78
2023-05-11T04:50:40.283Z,100963.47
2023-05-11T04:57:43.184Z,100959.56
2023-05-11T05:04:44.832Z,100969.06
2023-05-11T05:11:46.435Z,100976.00
2023-05-11T05:18:48.031Z,100979.44
2023-05-11T05:25:50.634Z,100977.72
2023-05-11T05:32:54.472Z,100972.78
2023-05-11T05:39:56.236Z,100988.13
2023-05-11T05:46:58.045Z,100987.38
2023-05-11T05:54:02.415Z,101001.63
2023-05-11T06:01:05.156Z,101003.94
2023-05-11T06:08:11.204Z,101005.44
2023-05-11T06:15:14.140Z,101009.63
2023-05-11T06:22:20.165Z,100998.88
2023-05-11T06:29:22.653Z,101007.16
2023-05-11T06:36:25.889Z,101002.16
2023-05-11T06:43:27.694Z,101003.97
2023-05-11T06:50:29.838Z,101000.53
2023-05-11T06:57:31.748Z,100998.47
2023-05-11T07:04:33.370Z,100997.59
2023-05-11T07:11:35.187Z,101001.28
2023-05-11T07:18:36.780Z,101005.47
2023-05-11T07:25:38.370Z,100997.06
2023-05-11T07:32:40.086Z,101002.31
2023-05-11T07:39:41.716Z,100991.81
2023-05-11T07:46:43.351Z,100994.50
2023-05-11T07:53:44.897Z,100999.25
2023-05-11T08:00:46.515Z,100990.31
2023-05-11T08:07:48.272Z,100987.97
2023-05-11T08:14:49.941Z,100989.25
2023-05-11T08:21:51.485Z,100984.97
2023-05-11T08:28:53.124Z,100986.16
2023-05-11T08:35:54.758Z,100980.19
2023-05-11T08:42:57.351Z,100986.69
2023-05-11T08:49:58.986Z,100984.72
2023-05-11T08:57:01.507Z,100974.94
2023-05-11T09:04:03.819Z,100983.19
2023-05-11T09:11:06.225Z,100962.88
2023-05-11T09:18:08.492Z,100963.88
2023-05-11T09:25:14.465Z,100972.00
2023-05-11T09:32:17.159Z,100960.75
2023-05-11T09:39:35.154Z,100971.00
2023-05-11T09:46:43.359Z,100962.78
2023-05-11T09:53:46.364Z,100959.38
2023-05-11T10:00:51.792Z,100959.63
2023-05-11T10:07:59.093Z,100959.94
2023-05-11T10:15:13.125Z,100948.88
2023-05-11T10:22:16.018Z,100951.34
2023-05-11T10:29:19.357Z,100942.06
2023-05-11T10:36:23.211Z,100937.28
2023-05-11T10:44:11.912Z,100943.03
2023-05-11T10:51:29.691Z,100941.75
2023-05-11T10:58:39.075Z,100946.19
2023-05-11T11:05:41.134Z,100935.63
2023-05-11T11:13:06.900Z,100930.56
2023-05-11T11:20:08.963Z,100937.00
2023-05-11T11:27:11.093Z,100935.03
2023-05-11T11:34:25.219Z,100953.75
2023-05-11T11:41:30.144Z,100944.78
2023-05-11T11:48:36.064Z,100954.63
2023-05-11T11:55:50.304Z,100957.88
2023-05-11T12:02:51.959Z,100957.00
2023-05-11T12:09:53.858Z,100953.50
2023-05-11T12:17:08.140Z,100961.28
2023-05-11T12:24:09.795Z,100959.06
2023-05-11T12:31:11.543Z,100962.91
2023-05-11T12:38:13.212Z,100955.03
2023-05-11T12:45:14.924Z,100961.50
2023-05-11T12:52:16.613Z,100966.69
2023-05-11T12:59:37.775Z,100958.91
2023-05-11T13:06:39.889Z,100950.28
2023-05-11T13:13:41.535Z,100944.69
2023-05-11T13:20:44.819Z,100941.56
2023-05-11T13:27:46.567Z,100927.25
2023-05-11T13:34:48.173Z,100931.19
2023-05-11T13:41:54.369Z,100928.41
2023-05-11T13:48:58.197Z,100934.34
2023-05-11T13:56:00.694Z,100943.53
2023-05-11T14:03:02.511Z,100932.16
2023-05-11T14:10:04.665Z,100935.22
2023-05-11T14:17:06.562Z,100924.97
2023-05-11T14:24:12.570Z,100932.06
2023-05-11T14:31:14.610Z,100931.94
2023-05-11T14:38:16.335Z,100930.94
2023-05-11T14:45:18.115Z,100927.03
2023-05-11T14:52:20.960Z,100922.41
2023-05-11T14:59:24.399Z,100913.56
2023-05-11T15:06:26.020Z,100916.13
2023-05-11T15:13:27.666Z,100944.38
2023-05-11T15:20:29.247Z,100936.81
2023-05-11T15:27:31.302Z,100949.00
2023-05-11T15:34:33.968Z,100954.34
2023-05-11T15:41:35.685Z,100960.25
2023-05-11T15:48:37.353Z,100957.47
2023-05-11T15:55:40.839Z,100955.78
2023-05-11T16:02:45.558Z,100960.25
2023-05-11T16:09:47.778Z,100970.00
2023-05-11T16:16:49.818Z,100979.25
2023-05-11T16:23:51.559Z,100980.97
2023-05-11T16:30:53.233Z,100980.97
2023-05-11T16:37:56.701Z,100989.59
2023-05-11T16:44:58.976Z,100994.75
2023-05-11T16:52:00.773Z,100991.13
2023-05-11T16:59:02.425Z,100998.19
2023-05-11T17:06:04.152Z,100998.19
2023-05-11T17:13:05.783Z,101001.22
2023-05-11T17:20:08.101Z,101003.94
2023-05-11T17:27:09.694Z,101010.59
2023-05-11T17:34:11.434Z,101023.44
2023-05-11T17:41:13.850Z,101017.78
2023-05-11T17:48:15.663Z,101033.41
2023-05-11T17:55:18.112Z,101034.56
2023-05-11T18:02:20.081Z,101043.78
2023-05-11T18:09:21.946Z,101054.16
2023-05-11T18:16:23.658Z,101055.72
2023-05-11T18:23:25.438Z,101060.69
2023-05-11T18:30:28.431Z,101071.03
2023-05-11T18:37:30.007Z,101075.88
2023-05-11T18:44:32.080Z,101084.09
2023-05-11T18:51:33.936Z,101093.22
2023-05-11T18:58:35.520Z,101098.97
2023-05-11T19:05:37.097Z,101098.56
2023-05-11T19:12:38.698Z,101121.47
2023-05-11T19:19:40.495Z,101125.38
2023-05-11T19:26:45.405Z,101133.56
2023-05-11T19:33:51.370Z,101142.72
2023-05-11T19:40:53.516Z,101143.25
2023-05-11T19:47:55.704Z,101152.28
2023-05-11T19:54:57.397Z,101161.47
2023-05-11T20:02:02.341Z,101166.88
2023-05-11T20:09:05.095Z,101169.31
2023-05-11T20:16:06.906Z,101176.47
2023-05-11T20:23:08.715Z,101176.38
2023-05-11T20:30:10.672Z,101172.28
2023-05-11T20:37:12.648Z,101175.97
2023-05-11T20:44:14.255Z,101181.47
2023-05-11T20:51:15.871Z,101188.06
2023-05-11T20:58:18.402Z,101196.06
2023-05-11T21:05:20.347Z,101190.38
2023-05-11T21:12:22.275Z,101192.50
2023-05-11T21:19:23.839Z,101195.41
2023-05-11T21:26:25.804Z,101198.78
2023-05-11T21:33:27.589Z,101201.44
2023-05-11T21:40:29.219Z,101212.56
2023-05-11T21:47:30.994Z,101210.91
2023-05-11T21:54:32.932Z,101219.88
2023-05-11T22:01:34.595Z,101228.75
2023-05-11T22:08:36.540Z,101234.78
2023-05-11T22:15:38.259Z,101234.25
2023-05-11T22:22:40.040Z,101236.25
2023-05-11T22:29:42.563Z,101242.34
2023-05-11T22:36:44.092Z,101241.59
2023-05-11T22:43:47.739Z,101238.00
2023-05-11T22:50:49.437Z,101247.25
2023-05-11T22:57:51.043Z,101246.25
2023-05-11T23:04:52.896Z,101254.06
2023-05-11T23:11:54.661Z,101256.63
2023-05-11T23:18:56.880Z,101253.59
2023-05-11T23:25:58.616Z,101254.41
2023-05-11T23:33:00.282Z,101257.00
2023-05-11T23:40:02.080Z,101247.41
2023-05-11T23:47:04.019Z,101246.66
2023-05-11T23:54:06.020Z,101252.25
